Terminal Aerodrome Forecast
Issued by NWS New Orleans/Baton Rouge, LA

Home | Current Version | Previous Version | Text Only | Print | Product List | Glossary On
Versions: 1 2 3 4 5 6 7 8 9 10 11 12 13
000
FTUS44 KLIX 162324
TAFNEW
TAF
KNEW 162324Z 1700/1724 01019G28KT P6SM SKC
     FM171300 05014G23KT P6SM SKC
     FM171800 06011KT P6SM FEW200=

USA.gov is the U.S. government's official web portal to all federal, state and local government web resources and services.